Terminal Aerodrome Forecast
Issued by NWS

Home | Current Version | Previous Version | Graphics & Text | Print | Product List | Glossary On
Versions: 1 2 3 4 5 6 7 8 9 10 11 12 13 14 15 16 17 18 19 20 21 22 23 24 25 26 27 28
000
FTUS43 KLOT 221509 AAA
TAFDPA
TAF AMD
KDPA 221509Z 2215/2312 27010KT P6SM SCT040 SCT250
      TEMPO 2215/2218 BKN040
     FM222300 17005KT P6SM SCT250
     FM230200 VRB03KT 3SM BR SCT040 SCT250=

USA.gov is the U.S. government's official web portal to all federal, state and local government web resources and services.